sensor_id;sensor_type;location;lat;lon;timestamp;temperature;humidity
19248;DHT22;9758;48.640;8.148;2024-02-26T00:01:50;12.30;49.20
19248;DHT22;9758;48.640;8.148;2024-02-26T00:04:18;12.20;49.20
19248;DHT22;9758;48.640;8.148;2024-02-26T00:06:44;12.20;49.30
19248;DHT22;9758;48.640;8.148;2024-02-26T00:09:11;12.20;49.40
19248;DHT22;9758;48.640;8.148;2024-02-26T00:11:38;12.20;49.50
19248;DHT22;9758;48.640;8.148;2024-02-26T00:14:06;12.20;49.50
19248;DHT22;9758;48.640;8.148;2024-02-26T00:16:33;12.10;49.50
19248;DHT22;9758;48.640;8.148;2024-02-26T00:19:00;12.10;49.60
19248;DHT22;9758;48.640;8.148;2024-02-26T00:21:28;12.10;49.60
19248;DHT22;9758;48.640;8.148;2024-02-26T00:23:54;12.10;49.60
19248;DHT22;9758;48.640;8.148;2024-02-26T00:26:21;12.10;49.70
19248;DHT22;9758;48.640;8.148;2024-02-26T00:28:48;12.10;49.70
19248;DHT22;9758;48.640;8.148;2024-02-26T00:31:16;12.10;49.70
19248;DHT22;9758;48.640;8.148;2024-02-26T00:33:43;12.10;49.80
19248;DHT22;9758;48.640;8.148;2024-02-26T00:36:09;12.00;49.70
19248;DHT22;9758;48.640;8.148;2024-02-26T00:38:36;12.00;49.70
19248;DHT22;9758;48.640;8.148;2024-02-26T00:41:04;12.00;49.80
19248;DHT22;9758;48.640;8.148;2024-02-26T00:43:31;11.90;49.70
19248;DHT22;9758;48.640;8.148;2024-02-26T00:45:58;11.90;49.90
19248;DHT22;9758;48.640;8.148;2024-02-26T00:48:26;12.00;50.00
19248;DHT22;9758;48.640;8.148;2024-02-26T00:50:53;12.00;49.90
19248;DHT22;9758;48.640;8.148;2024-02-26T00:53:19;12.00;49.90
19248;DHT22;9758;48.640;8.148;2024-02-26T00:55:46;12.00;49.90
19248;DHT22;9758;48.640;8.148;2024-02-26T00:58:13;12.00;49.90
19248;DHT22;9758;48.640;8.148;2024-02-26T01:00:40;12.00;49.90
19248;DHT22;9758;48.640;8.148;2024-02-26T01:03:06;12.00;49.90
19248;DHT22;9758;48.640;8.148;2024-02-26T01:05:36;12.00;50.00
19248;DHT22;9758;48.640;8.148;2024-02-26T01:08:04;12.00;50.00
19248;DHT22;9758;48.640;8.148;2024-02-26T01:10:31;11.90;50.00
19248;DHT22;9758;48.640;8.148;2024-02-26T01:12:57;11.90;50.30
19248;DHT22;9758;48.640;8.148;2024-02-26T01:15:24;11.80;50.20
19248;DHT22;9758;48.640;8.148;2024-02-26T01:17:51;11.90;50.40
19248;DHT22;9758;48.640;8.148;2024-02-26T01:20:17;11.80;50.40
19248;DHT22;9758;48.640;8.148;2024-02-26T01:22:46;11.70;50.40
19248;DHT22;9758;48.640;8.148;2024-02-26T01:25:13;11.60;50.40
19248;DHT22;9758;48.640;8.148;2024-02-26T01:27:41;11.50;50.50
19248;DHT22;9758;48.640;8.148;2024-02-26T01:30:10;11.40;50.80
19248;DHT22;9758;48.640;8.148;2024-02-26T01:32:37;11.30;50.90
19248;DHT22;9758;48.640;8.148;2024-02-26T01:35:04;11.20;50.80
19248;DHT22;9758;48.640;8.148;2024-02-26T01:37:33;11.10;51.00
19248;DHT22;9758;48.640;8.148;2024-02-26T01:40:01;11.10;51.20
19248;DHT22;9758;48.640;8.148;2024-02-26T01:42:29;11.00;51.10
19248;DHT22;9758;48.640;8.148;2024-02-26T01:44:56;10.90;51.30
19248;DHT22;9758;48.640;8.148;2024-02-26T01:47:23;10.80;51.50
19248;DHT22;9758;48.640;8.148;2024-02-26T01:49:50;10.70;51.70
19248;DHT22;9758;48.640;8.148;2024-02-26T01:52:17;10.60;52.50
19248;DHT22;9758;48.640;8.148;2024-02-26T01:54:45;10.50;51.80
19248;DHT22;9758;48.640;8.148;2024-02-26T01:57:14;10.50;51.90
19248;DHT22;9758;48.640;8.148;2024-02-26T01:59:41;10.50;52.00
19248;DHT22;9758;48.640;8.148;2024-02-26T02:02:10;10.50;52.10
19248;DHT22;9758;48.640;8.148;2024-02-26T02:04:39;10.50;52.20
19248;DHT22;9758;48.640;8.148;2024-02-26T02:07:06;10.50;52.40
19248;DHT22;9758;48.640;8.148;2024-02-26T02:09:32;10.40;52.50
19248;DHT22;9758;48.640;8.148;2024-02-26T02:12:00;10.40;52.40
19248;DHT22;9758;48.640;8.148;2024-02-26T02:14:29;10.40;52.40
19248;DHT22;9758;48.640;8.148;2024-02-26T02:16:55;10.40;52.40
19248;DHT22;9758;48.640;8.148;2024-02-26T02:19:22;10.40;52.70
19248;DHT22;9758;48.640;8.148;2024-02-26T02:21:50;10.40;52.50
19248;DHT22;9758;48.640;8.148;2024-02-26T02:24:17;10.40;52.60
19248;DHT22;9758;48.640;8.148;2024-02-26T02:26:44;10.30;52.60
19248;DHT22;9758;48.640;8.148;2024-02-26T02:29:11;10.40;52.60
19248;DHT22;9758;48.640;8.148;2024-02-26T02:31:38;10.40;52.60
19248;DHT22;9758;48.640;8.148;2024-02-26T02:34:05;10.40;52.60
19248;DHT22;9758;48.640;8.148;2024-02-26T02:36:32;10.40;52.70
19248;DHT22;9758;48.640;8.148;2024-02-26T02:39:00;10.40;52.60
19248;DHT22;9758;48.640;8.148;2024-02-26T02:41:27;10.40;52.80
19248;DHT22;9758;48.640;8.148;2024-02-26T02:43:55;10.40;52.90
19248;DHT22;9758;48.640;8.148;2024-02-26T02:46:23;10.30;53.30
19248;DHT22;9758;48.640;8.148;2024-02-26T02:48:49;10.40;52.80
19248;DHT22;9758;48.640;8.148;2024-02-26T02:51:16;10.40;53.20
19248;DHT22;9758;48.640;8.148;2024-02-26T02:53:43;10.30;53.20
19248;DHT22;9758;48.640;8.148;2024-02-26T02:56:11;10.40;53.10
19248;DHT22;9758;48.640;8.148;2024-02-26T02:58:37;10.30;52.90
19248;DHT22;9758;48.640;8.148;2024-02-26T03:01:04;10.30;53.20
19248;DHT22;9758;48.640;8.148;2024-02-26T03:03:31;10.30;52.90
19248;DHT22;9758;48.640;8.148;2024-02-26T03:05:58;10.40;53.10
19248;DHT22;9758;48.640;8.148;2024-02-26T03:08:24;10.30;53.00
19248;DHT22;9758;48.640;8.148;2024-02-26T03:10:52;10.40;53.00
19248;DHT22;9758;48.640;8.148;2024-02-26T03:13:20;10.40;53.00
19248;DHT22;9758;48.640;8.148;2024-02-26T03:15:46;10.40;52.90
19248;DHT22;9758;48.640;8.148;2024-02-26T03:18:13;10.40;52.90
19248;DHT22;9758;48.640;8.148;2024-02-26T03:20:40;10.40;53.00
19248;DHT22;9758;48.640;8.148;2024-02-26T03:23:06;10.50;52.90
19248;DHT22;9758;48.640;8.148;2024-02-26T03:25:37;10.50;53.00
19248;DHT22;9758;48.640;8.148;2024-02-26T03:28:04;10.50;52.80
19248;DHT22;9758;48.640;8.148;2024-02-26T03:30:32;10.60;52.80
19248;DHT22;9758;48.640;8.148;2024-02-26T03:33:00;10.60;52.80
19248;DHT22;9758;48.640;8.148;2024-02-26T03:35:26;10.60;52.80
19248;DHT22;9758;48.640;8.148;2024-02-26T03:37:53;10.60;52.80
19248;DHT22;9758;48.640;8.148;2024-02-26T03:40:20;10.70;52.80
19248;DHT22;9758;48.640;8.148;2024-02-26T03:42:47;10.70;52.70
19248;DHT22;9758;48.640;8.148;2024-02-26T03:45:13;10.80;52.70
19248;DHT22;9758;48.640;8.148;2024-02-26T03:47:41;10.70;52.70
19248;DHT22;9758;48.640;8.148;2024-02-26T03:50:09;10.70;52.70
19248;DHT22;9758;48.640;8.148;2024-02-26T03:52:35;10.70;52.70
19248;DHT22;9758;48.640;8.148;2024-02-26T03:55:02;10.70;52.70
19248;DHT22;9758;48.640;8.148;2024-02-26T03:57:29;10.70;52.70
19248;DHT22;9758;48.640;8.148;2024-02-26T03:59:56;10.70;52.70
19248;DHT22;9758;48.640;8.148;2024-02-26T04:02:22;10.70;52.80
19248;DHT22;9758;48.640;8.148;2024-02-26T04:04:52;10.70;52.90
19248;DHT22;9758;48.640;8.148;2024-02-26T04:07:19;10.70;53.00
19248;DHT22;9758;48.640;8.148;2024-02-26T04:09:45;10.70;53.00
19248;DHT22;9758;48.640;8.148;2024-02-26T04:12:12;10.70;53.10
19248;DHT22;9758;48.640;8.148;2024-02-26T04:14:39;10.80;53.30
19248;DHT22;9758;48.640;8.148;2024-02-26T04:17:05;10.80;53.20
19248;DHT22;9758;48.640;8.148;2024-02-26T04:19:32;10.80;53.20
19248;DHT22;9758;48.640;8.148;2024-02-26T04:22:01;10.80;53.20
19248;DHT22;9758;48.640;8.148;2024-02-26T04:24:28;10.80;53.40
19248;DHT22;9758;48.640;8.148;2024-02-26T04:26:54;10.80;53.30
19248;DHT22;9758;48.640;8.148;2024-02-26T04:29:21;10.80;53.30
19248;DHT22;9758;48.640;8.148;2024-02-26T04:31:48;10.80;53.30
19248;DHT22;9758;48.640;8.148;2024-02-26T04:34:14;10.90;53.40
19248;DHT22;9758;48.640;8.148;2024-02-26T04:36:42;10.90;53.40
19248;DHT22;9758;48.640;8.148;2024-02-26T04:39:10;10.90;53.50
19248;DHT22;9758;48.640;8.148;2024-02-26T04:41:37;10.90;53.40
19248;DHT22;9758;48.640;8.148;2024-02-26T04:44:04;10.90;53.50
19248;DHT22;9758;48.640;8.148;2024-02-26T04:46:30;10.90;53.70
19248;DHT22;9758;48.640;8.148;2024-02-26T04:48:57;10.90;53.50
19248;DHT22;9758;48.640;8.148;2024-02-26T04:51:24;10.90;53.60
19248;DHT22;9758;48.640;8.148;2024-02-26T04:53:51;10.90;53.60
19248;DHT22;9758;48.640;8.148;2024-02-26T04:56:20;10.90;53.70
19248;DHT22;9758;48.640;8.148;2024-02-26T04:58:47;10.90;53.70
19248;DHT22;9758;48.640;8.148;2024-02-26T05:01:14;10.90;53.60
19248;DHT22;9758;48.640;8.148;2024-02-26T05:03:42;10.90;53.60
19248;DHT22;9758;48.640;8.148;2024-02-26T05:06:09;10.90;53.80
19248;DHT22;9758;48.640;8.148;2024-02-26T05:11:46;10.90;53.70
19248;DHT22;9758;48.640;8.148;2024-02-26T05:14:13;10.90;53.60
19248;DHT22;9758;48.640;8.148;2024-02-26T05:16:39;10.90;53.60
19248;DHT22;9758;48.640;8.148;2024-02-26T05:19:06;10.90;53.60
19248;DHT22;9758;48.640;8.148;2024-02-26T05:21:33;10.90;53.60
19248;DHT22;9758;48.640;8.148;2024-02-26T05:24:00;10.90;53.70
19248;DHT22;9758;48.640;8.148;2024-02-26T05:26:27;10.90;53.70
19248;DHT22;9758;48.640;8.148;2024-02-26T05:28:55;10.90;54.00
19248;DHT22;9758;48.640;8.148;2024-02-26T05:31:24;10.80;53.80
19248;DHT22;9758;48.640;8.148;2024-02-26T05:33:51;10.80;53.90
19248;DHT22;9758;48.640;8.148;2024-02-26T05:36:19;10.80;54.00
19248;DHT22;9758;48.640;8.148;2024-02-26T05:38:47;10.70;53.90
19248;DHT22;9758;48.640;8.148;2024-02-26T05:41:14;10.70;54.00
19248;DHT22;9758;48.640;8.148;2024-02-26T05:43:41;10.70;53.90
19248;DHT22;9758;48.640;8.148;2024-02-26T05:46:09;10.70;53.90
19248;DHT22;9758;48.640;8.148;2024-02-26T05:48:36;10.60;53.80
19248;DHT22;9758;48.640;8.148;2024-02-26T05:51:04;10.60;54.00
19248;DHT22;9758;48.640;8.148;2024-02-26T05:53:31;10.60;54.00
19248;DHT22;9758;48.640;8.148;2024-02-26T05:55:58;10.60;54.20
19248;DHT22;9758;48.640;8.148;2024-02-26T05:58:24;10.50;54.20
19248;DHT22;9758;48.640;8.148;2024-02-26T06:00:51;10.50;54.20
19248;DHT22;9758;48.640;8.148;2024-02-26T06:03:19;10.50;54.90
19248;DHT22;9758;48.640;8.148;2024-02-26T06:05:46;10.50;54.20
19248;DHT22;9758;48.640;8.148;2024-02-26T06:08:13;10.50;54.20
19248;DHT22;9758;48.640;8.148;2024-02-26T06:10:40;10.50;54.30
19248;DHT22;9758;48.640;8.148;2024-02-26T06:13:07;10.50;54.50
19248;DHT22;9758;48.640;8.148;2024-02-26T06:15:33;10.50;54.50
19248;DHT22;9758;48.640;8.148;2024-02-26T06:18:00;10.50;54.80
19248;DHT22;9758;48.640;8.148;2024-02-26T06:20:28;10.50;54.80
19248;DHT22;9758;48.640;8.148;2024-02-26T06:22:55;10.50;54.70
19248;DHT22;9758;48.640;8.148;2024-02-26T06:25:21;10.50;54.70
19248;DHT22;9758;48.640;8.148;2024-02-26T06:27:48;10.50;54.80
19248;DHT22;9758;48.640;8.148;2024-02-26T06:30:15;10.50;54.70
19248;DHT22;9758;48.640;8.148;2024-02-26T06:32:42;10.50;55.00
19248;DHT22;9758;48.640;8.148;2024-02-26T06:35:09;10.60;55.10
19248;DHT22;9758;48.640;8.148;2024-02-26T06:37:38;10.60;54.80
19248;DHT22;9758;48.640;8.148;2024-02-26T06:40:06;10.60;55.10
19248;DHT22;9758;48.640;8.148;2024-02-26T06:42:33;10.60;54.90
19248;DHT22;9758;48.640;8.148;2024-02-26T06:45:00;10.70;54.80
19248;DHT22;9758;48.640;8.148;2024-02-26T06:47:26;10.70;54.80
19248;DHT22;9758;48.640;8.148;2024-02-26T06:49:53;10.80;54.70
19248;DHT22;9758;48.640;8.148;2024-02-26T06:52:23;10.80;54.70
19248;DHT22;9758;48.640;8.148;2024-02-26T06:54:51;10.90;54.60
19248;DHT22;9758;48.640;8.148;2024-02-26T06:57:19;10.90;54.90
19248;DHT22;9758;48.640;8.148;2024-02-26T06:59:46;10.90;54.70
19248;DHT22;9758;48.640;8.148;2024-02-26T07:02:12;11.00;54.70
19248;DHT22;9758;48.640;8.148;2024-02-26T07:04:39;11.00;55.00
19248;DHT22;9758;48.640;8.148;2024-02-26T07:07:07;11.00;54.70
19248;DHT22;9758;48.640;8.148;2024-02-26T07:09:34;11.10;55.00
19248;DHT22;9758;48.640;8.148;2024-02-26T07:12:02;11.10;54.80
19248;DHT22;9758;48.640;8.148;2024-02-26T07:14:29;11.10;54.80
19248;DHT22;9758;48.640;8.148;2024-02-26T07:16:56;11.20;54.70
19248;DHT22;9758;48.640;8.148;2024-02-26T07:19:23;11.20;54.60
19248;DHT22;9758;48.640;8.148;2024-02-26T07:21:50;11.30;54.60
19248;DHT22;9758;48.640;8.148;2024-02-26T07:24:17;11.40;54.50
19248;DHT22;9758;48.640;8.148;2024-02-26T07:26:43;11.40;55.10
19248;DHT22;9758;48.640;8.148;2024-02-26T07:29:11;11.50;54.40
19248;DHT22;9758;48.640;8.148;2024-02-26T07:31:38;11.50;54.40
19248;DHT22;9758;48.640;8.148;2024-02-26T07:34:05;11.50;54.30
19248;DHT22;9758;48.640;8.148;2024-02-26T07:36:32;11.60;54.20
19248;DHT22;9758;48.640;8.148;2024-02-26T07:38:58;11.60;54.20
19248;DHT22;9758;48.640;8.148;2024-02-26T07:41:26;11.60;54.20
19248;DHT22;9758;48.640;8.148;2024-02-26T07:43:53;11.60;54.20
19248;DHT22;9758;48.640;8.148;2024-02-26T07:46:21;11.60;54.20
19248;DHT22;9758;48.640;8.148;2024-02-26T07:48:48;11.60;54.10
19248;DHT22;9758;48.640;8.148;2024-02-26T07:51:15;11.60;54.20
19248;DHT22;9758;48.640;8.148;2024-02-26T07:53:42;11.60;54.20
19248;DHT22;9758;48.640;8.148;2024-02-26T07:56:09;11.70;54.20
19248;DHT22;9758;48.640;8.148;2024-02-26T07:58:36;11.70;54.30
19248;DHT22;9758;48.640;8.148;2024-02-26T08:01:03;11.70;54.30
19248;DHT22;9758;48.640;8.148;2024-02-26T08:03:31;11.80;54.30
19248;DHT22;9758;48.640;8.148;2024-02-26T08:05:58;11.80;54.30
19248;DHT22;9758;48.640;8.148;2024-02-26T08:08:24;11.90;54.30
19248;DHT22;9758;48.640;8.148;2024-02-26T08:10:51;11.90;54.90
19248;DHT22;9758;48.640;8.148;2024-02-26T08:13:18;12.00;54.20
19248;DHT22;9758;48.640;8.148;2024-02-26T08:15:45;12.00;54.10
19248;DHT22;9758;48.640;8.148;2024-02-26T08:18:11;12.10;54.00
19248;DHT22;9758;48.640;8.148;2024-02-26T08:24:01;12.20;54.00
19248;DHT22;9758;48.640;8.148;2024-02-26T08:26:28;12.30;54.00
19248;DHT22;9758;48.640;8.148;2024-02-26T08:28:54;12.30;54.00
19248;DHT22;9758;48.640;8.148;2024-02-26T08:31:21;12.40;54.00
19248;DHT22;9758;48.640;8.148;2024-02-26T08:33:48;12.40;54.00
19248;DHT22;9758;48.640;8.148;2024-02-26T08:36:16;12.50;53.90
19248;DHT22;9758;48.640;8.148;2024-02-26T08:38:43;12.50;53.90
19248;DHT22;9758;48.640;8.148;2024-02-26T08:41:11;12.70;54.00
19248;DHT22;9758;48.640;8.148;2024-02-26T08:43:38;12.70;53.80
19248;DHT22;9758;48.640;8.148;2024-02-26T08:46:08;12.80;53.80
19248;DHT22;9758;48.640;8.148;2024-02-26T08:48:35;12.80;53.70
19248;DHT22;9758;48.640;8.148;2024-02-26T08:51:05;12.90;53.60
19248;DHT22;9758;48.640;8.148;2024-02-26T08:53:32;12.90;53.60
19248;DHT22;9758;48.640;8.148;2024-02-26T08:55:58;12.90;53.60
19248;DHT22;9758;48.640;8.148;2024-02-26T08:58:27;12.90;53.60
19248;DHT22;9758;48.640;8.148;2024-02-26T09:00:53;12.90;53.60
19248;DHT22;9758;48.640;8.148;2024-02-26T09:03:20;12.90;53.60
19248;DHT22;9758;48.640;8.148;2024-02-26T09:05:47;13.00;53.70
19248;DHT22;9758;48.640;8.148;2024-02-26T09:08:14;13.00;53.80
19248;DHT22;9758;48.640;8.148;2024-02-26T09:10:41;13.00;53.70
19248;DHT22;9758;48.640;8.148;2024-02-26T09:13:08;13.10;53.80
19248;DHT22;9758;48.640;8.148;2024-02-26T09:15:36;13.20;53.80
19248;DHT22;9758;48.640;8.148;2024-02-26T09:20:55;13.20;53.70
19248;DHT22;9758;48.640;8.148;2024-02-26T09:23:21;13.20;53.80
19248;DHT22;9758;48.640;8.148;2024-02-26T09:25:48;13.10;53.60
19248;DHT22;9758;48.640;8.148;2024-02-26T09:28:15;13.00;53.80
19248;DHT22;9758;48.640;8.148;2024-02-26T09:30:44;13.00;54.10
19248;DHT22;9758;48.640;8.148;2024-02-26T09:33:10;12.90;54.00
19248;DHT22;9758;48.640;8.148;2024-02-26T09:35:37;12.90;54.10
19248;DHT22;9758;48.640;8.148;2024-02-26T09:38:04;13.00;54.30
19248;DHT22;9758;48.640;8.148;2024-02-26T09:40:31;13.00;54.20
19248;DHT22;9758;48.640;8.148;2024-02-26T09:42:59;13.10;54.10
19248;DHT22;9758;48.640;8.148;2024-02-26T09:45:28;13.10;54.10
19248;DHT22;9758;48.640;8.148;2024-02-26T09:47:57;13.10;54.20
19248;DHT22;9758;48.640;8.148;2024-02-26T09:50:24;13.20;54.30
19248;DHT22;9758;48.640;8.148;2024-02-26T09:52:51;13.20;54.30
19248;DHT22;9758;48.640;8.148;2024-02-26T09:55:18;13.30;54.30
19248;DHT22;9758;48.640;8.148;2024-02-26T09:57:46;13.40;54.40
19248;DHT22;9758;48.640;8.148;2024-02-26T10:00:17;13.60;54.40
19248;DHT22;9758;48.640;8.148;2024-02-26T10:02:45;13.60;54.30
19248;DHT22;9758;48.640;8.148;2024-02-26T10:05:14;13.80;54.20
19248;DHT22;9758;48.640;8.148;2024-02-26T10:07:44;13.90;54.10
19248;DHT22;9758;48.640;8.148;2024-02-26T10:10:11;14.00;54.10
19248;DHT22;9758;48.640;8.148;2024-02-26T10:12:38;14.10;54.10
19248;DHT22;9758;48.640;8.148;2024-02-26T10:15:05;14.20;54.10
19248;DHT22;9758;48.640;8.148;2024-02-26T10:17:32;14.10;54.10
19248;DHT22;9758;48.640;8.148;2024-02-26T10:20:13;14.20;54.20
19248;DHT22;9758;48.640;8.148;2024-02-26T10:22:41;14.20;54.30
19248;DHT22;9758;48.640;8.148;2024-02-26T10:25:08;14.20;54.40
19248;DHT22;9758;48.640;8.148;2024-02-26T10:27:35;14.30;54.50
19248;DHT22;9758;48.640;8.148;2024-02-26T10:30:03;14.30;54.20
19248;DHT22;9758;48.640;8.148;2024-02-26T10:32:30;14.40;54.40
19248;DHT22;9758;48.640;8.148;2024-02-26T10:34:57;14.40;54.30
19248;DHT22;9758;48.640;8.148;2024-02-26T10:37:26;14.40;54.30
19248;DHT22;9758;48.640;8.148;2024-02-26T10:39:52;14.40;54.30
19248;DHT22;9758;48.640;8.148;2024-02-26T10:42:19;14.40;54.40
19248;DHT22;9758;48.640;8.148;2024-02-26T10:44:46;14.40;54.50
19248;DHT22;9758;48.640;8.148;2024-02-26T10:47:14;14.40;54.50
19248;DHT22;9758;48.640;8.148;2024-02-26T10:49:45;14.40;54.50
19248;DHT22;9758;48.640;8.148;2024-02-26T10:52:14;14.40;54.50
19248;DHT22;9758;48.640;8.148;2024-02-26T10:54:44;14.30;54.40
19248;DHT22;9758;48.640;8.148;2024-02-26T10:57:13;14.30;54.40
19248;DHT22;9758;48.640;8.148;2024-02-26T10:59:42;14.30;54.40
19248;DHT22;9758;48.640;8.148;2024-02-26T11:02:10;14.30;54.40
19248;DHT22;9758;48.640;8.148;2024-02-26T11:04:39;14.20;54.40
19248;DHT22;9758;48.640;8.148;2024-02-26T11:07:18;14.30;54.40
19248;DHT22;9758;48.640;8.148;2024-02-26T11:09:47;14.30;54.50
19248;DHT22;9758;48.640;8.148;2024-02-26T11:12:18;14.40;54.50
19248;DHT22;9758;48.640;8.148;2024-02-26T11:14:46;14.50;54.30
19248;DHT22;9758;48.640;8.148;2024-02-26T11:17:15;14.50;54.30
19248;DHT22;9758;48.640;8.148;2024-02-26T11:19:43;14.70;54.30
19248;DHT22;9758;48.640;8.148;2024-02-26T11:22:10;14.70;54.20
19248;DHT22;9758;48.640;8.148;2024-02-26T11:24:37;14.70;54.10
19248;DHT22;9758;48.640;8.148;2024-02-26T11:27:10;14.70;54.00
19248;DHT22;9758;48.640;8.148;2024-02-26T11:29:41;14.80;54.10
19248;DHT22;9758;48.640;8.148;2024-02-26T11:32:10;14.80;54.00
19248;DHT22;9758;48.640;8.148;2024-02-26T11:34:37;14.90;54.00
19248;DHT22;9758;48.640;8.148;2024-02-26T11:37:11;15.00;54.00
19248;DHT22;9758;48.640;8.148;2024-02-26T11:39:39;15.00;53.80
19248;DHT22;9758;48.640;8.148;2024-02-26T11:42:09;15.10;53.90
19248;DHT22;9758;48.640;8.148;2024-02-26T11:44:36;15.10;53.80
19248;DHT22;9758;48.640;8.148;2024-02-26T11:47:12;15.10;53.70
19248;DHT22;9758;48.640;8.148;2024-02-26T11:49:39;15.10;53.80
19248;DHT22;9758;48.640;8.148;2024-02-26T11:52:08;15.10;53.70
19248;DHT22;9758;48.640;8.148;2024-02-26T11:54:39;15.10;53.80
19248;DHT22;9758;48.640;8.148;2024-02-26T11:57:25;15.10;53.80
19248;DHT22;9758;48.640;8.148;2024-02-26T11:59:52;15.00;53.70
19248;DHT22;9758;48.640;8.148;2024-02-26T12:02:38;15.00;53.70
19248;DHT22;9758;48.640;8.148;2024-02-26T12:05:07;15.00;53.90
19248;DHT22;9758;48.640;8.148;2024-02-26T12:07:34;15.00;53.90
19248;DHT22;9758;48.640;8.148;2024-02-26T12:10:16;15.00;54.00
19248;DHT22;9758;48.640;8.148;2024-02-26T12:12:45;15.00;54.00
19248;DHT22;9758;48.640;8.148;2024-02-26T12:15:11;15.10;54.00
19248;DHT22;9758;48.640;8.148;2024-02-26T12:17:41;15.20;54.10
19248;DHT22;9758;48.640;8.148;2024-02-26T12:20:08;15.20;54.00
19248;DHT22;9758;48.640;8.148;2024-02-26T12:22:36;15.20;53.90
19248;DHT22;9758;48.640;8.148;2024-02-26T12:25:05;15.20;54.00
19248;DHT22;9758;48.640;8.148;2024-02-26T12:27:32;15.20;54.20
19248;DHT22;9758;48.640;8.148;2024-02-26T12:30:00;15.30;54.20
19248;DHT22;9758;48.640;8.148;2024-02-26T12:32:26;15.30;54.20
19248;DHT22;9758;48.640;8.148;2024-02-26T12:34:53;15.30;54.10
19248;DHT22;9758;48.640;8.148;2024-02-26T12:37:20;15.40;54.20
19248;DHT22;9758;48.640;8.148;2024-02-26T12:39:47;15.40;54.10
19248;DHT22;9758;48.640;8.148;2024-02-26T12:42:14;15.50;54.10
19248;DHT22;9758;48.640;8.148;2024-02-26T12:44:41;15.60;54.00
19248;DHT22;9758;48.640;8.148;2024-02-26T12:47:09;15.60;53.80
19248;DHT22;9758;48.640;8.148;2024-02-26T12:49:42;15.60;53.70
19248;DHT22;9758;48.640;8.148;2024-02-26T12:52:09;15.60;53.70
19248;DHT22;9758;48.640;8.148;2024-02-26T12:54:37;15.50;53.70
19248;DHT22;9758;48.640;8.148;2024-02-26T12:57:05;15.50;53.80
19248;DHT22;9758;48.640;8.148;2024-02-26T12:59:34;15.50;53.60
19248;DHT22;9758;48.640;8.148;2024-02-26T13:02:01;15.50;53.70
19248;DHT22;9758;48.640;8.148;2024-02-26T13:04:30;15.50;53.80
19248;DHT22;9758;48.640;8.148;2024-02-26T13:06:57;15.60;53.90
19248;DHT22;9758;48.640;8.148;2024-02-26T13:09:28;15.60;53.80
19248;DHT22;9758;48.640;8.148;2024-02-26T13:11:55;15.70;53.70
19248;DHT22;9758;48.640;8.148;2024-02-26T13:14:22;15.70;53.60
19248;DHT22;9758;48.640;8.148;2024-02-26T13:16:55;15.70;53.70
19248;DHT22;9758;48.640;8.148;2024-02-26T13:19:22;15.70;53.60
19248;DHT22;9758;48.640;8.148;2024-02-26T13:21:50;15.70;53.60
19248;DHT22;9758;48.640;8.148;2024-02-26T13:24:17;15.80;53.60
19248;DHT22;9758;48.640;8.148;2024-02-26T13:26:45;15.90;53.50
19248;DHT22;9758;48.640;8.148;2024-02-26T13:29:17;15.90;53.30
19248;DHT22;9758;48.640;8.148;2024-02-26T13:31:43;15.90;53.20
19248;DHT22;9758;48.640;8.148;2024-02-26T13:34:10;16.00;53.30
19248;DHT22;9758;48.640;8.148;2024-02-26T13:36:37;16.00;53.20
19248;DHT22;9758;48.640;8.148;2024-02-26T13:39:05;16.00;53.20
19248;DHT22;9758;48.640;8.148;2024-02-26T13:41:31;15.90;53.10
19248;DHT22;9758;48.640;8.148;2024-02-26T13:43:58;15.90;53.10
19248;DHT22;9758;48.640;8.148;2024-02-26T13:46:40;15.90;53.30
19248;DHT22;9758;48.640;8.148;2024-02-26T13:49:09;15.80;53.30
19248;DHT22;9758;48.640;8.148;2024-02-26T13:51:36;15.80;53.30
19248;DHT22;9758;48.640;8.148;2024-02-26T13:54:02;15.80;53.30
19248;DHT22;9758;48.640;8.148;2024-02-26T13:56:31;15.80;53.30
19248;DHT22;9758;48.640;8.148;2024-02-26T13:58:58;15.80;53.40
19248;DHT22;9758;48.640;8.148;2024-02-26T14:01:36;15.80;53.40
19248;DHT22;9758;48.640;8.148;2024-02-26T14:04:04;15.70;54.00
19248;DHT22;9758;48.640;8.148;2024-02-26T14:06:30;15.70;53.30
19248;DHT22;9758;48.640;8.148;2024-02-26T14:08:57;15.70;53.40
19248;DHT22;9758;48.640;8.148;2024-02-26T14:11:24;15.70;53.40
19248;DHT22;9758;48.640;8.148;2024-02-26T14:13:52;15.70;53.40
19248;DHT22;9758;48.640;8.148;2024-02-26T14:16:19;15.70;53.30
19248;DHT22;9758;48.640;8.148;2024-02-26T14:18:46;15.70;53.40
19248;DHT22;9758;48.640;8.148;2024-02-26T14:21:12;15.60;53.50
19248;DHT22;9758;48.640;8.148;2024-02-26T14:23:39;15.60;53.40
19248;DHT22;9758;48.640;8.148;2024-02-26T14:26:08;15.60;53.50
19248;DHT22;9758;48.640;8.148;2024-02-26T14:28:34;15.60;53.50
19248;DHT22;9758;48.640;8.148;2024-02-26T14:31:03;15.70;53.60
19248;DHT22;9758;48.640;8.148;2024-02-26T14:33:31;15.70;53.60
19248;DHT22;9758;48.640;8.148;2024-02-26T14:35:58;15.80;53.50
19248;DHT22;9758;48.640;8.148;2024-02-26T14:38:24;15.80;53.50
19248;DHT22;9758;48.640;8.148;2024-02-26T14:40:51;15.80;53.50
19248;DHT22;9758;48.640;8.148;2024-02-26T14:43:18;15.80;53.50
19248;DHT22;9758;48.640;8.148;2024-02-26T14:45:52;15.80;53.40
19248;DHT22;9758;48.640;8.148;2024-02-26T14:48:20;15.90;53.30
19248;DHT22;9758;48.640;8.148;2024-02-26T14:50:46;15.90;53.20
19248;DHT22;9758;48.640;8.148;2024-02-26T14:53:13;16.00;53.30
19248;DHT22;9758;48.640;8.148;2024-02-26T14:55:40;16.00;53.20
19248;DHT22;9758;48.640;8.148;2024-02-26T14:58:06;16.00;53.10
19248;DHT22;9758;48.640;8.148;2024-02-26T15:00:36;16.00;53.00
19248;DHT22;9758;48.640;8.148;2024-02-26T15:03:03;16.00;53.10
19248;DHT22;9758;48.640;8.148;2024-02-26T15:05:31;16.00;53.00
19248;DHT22;9758;48.640;8.148;2024-02-26T15:07:58;15.90;52.90
19248;DHT22;9758;48.640;8.148;2024-02-26T15:10:25;15.90;53.00
19248;DHT22;9758;48.640;8.148;2024-02-26T15:12:53;15.90;53.10
19248;DHT22;9758;48.640;8.148;2024-02-26T15:15:20;15.90;53.10
19248;DHT22;9758;48.640;8.148;2024-02-26T15:17:47;15.80;53.10
19248;DHT22;9758;48.640;8.148;2024-02-26T15:20:15;15.80;53.20
19248;DHT22;9758;48.640;8.148;2024-02-26T15:22:43;15.90;53.20
19248;DHT22;9758;48.640;8.148;2024-02-26T15:25:23;15.80;53.00
19248;DHT22;9758;48.640;8.148;2024-02-26T15:27:50;15.80;53.10
19248;DHT22;9758;48.640;8.148;2024-02-26T15:30:17;15.80;53.10
19248;DHT22;9758;48.640;8.148;2024-02-26T15:32:43;15.90;53.20
19248;DHT22;9758;48.640;8.148;2024-02-26T15:35:10;15.90;53.20
19248;DHT22;9758;48.640;8.148;2024-02-26T15:37:45;15.90;53.10
19248;DHT22;9758;48.640;8.148;2024-02-26T15:40:12;16.00;53.00
19248;DHT22;9758;48.640;8.148;2024-02-26T15:42:39;16.00;53.00
19248;DHT22;9758;48.640;8.148;2024-02-26T15:45:06;16.00;53.00
19248;DHT22;9758;48.640;8.148;2024-02-26T15:47:33;16.00;53.00
19248;DHT22;9758;48.640;8.148;2024-02-26T15:50:00;16.00;52.90
19248;DHT22;9758;48.640;8.148;2024-02-26T15:52:27;15.90;53.20
19248;DHT22;9758;48.640;8.148;2024-02-26T15:54:56;15.90;53.20
19248;DHT22;9758;48.640;8.148;2024-02-26T15:57:23;15.90;53.20